createdAt,value
2019-01-31T00:00:33.051Z,79.81
2019-01-31T00:03:35.026Z,79.63
2019-01-31T00:06:13.405Z,79.43
2019-01-31T00:09:28.578Z,79.50
2019-01-31T00:12:33.138Z,79.31
2019-01-31T00:15:10.564Z,79.37
2019-01-31T00:18:00.796Z,79.37
2019-01-31T00:21:01.676Z,79.54
2019-01-31T00:24:07.176Z,80.01
2019-01-31T00:27:08.571Z,80.60
2019-01-31T00:29:49.264Z,81.11
2019-01-31T00:33:05.645Z,81.33
2019-01-31T00:36:02.533Z,81.54
2019-01-31T00:38:56.785Z,81.66
2019-01-31T00:41:34.615Z,81.75
2019-01-31T00:44:36.850Z,81.52
2019-01-31T00:47:18.666Z,81.53
2019-01-31T00:50:25.339Z,81.67
2019-01-31T00:53:25.469Z,81.63
2019-01-31T00:56:17.747Z,81.69
2019-01-31T00:59:30.743Z,81.82
2019-01-31T01:02:21.058Z,81.47
2019-01-31T01:05:27.089Z,81.58
2019-01-31T01:08:21.542Z,81.61
2019-01-31T01:11:21.864Z,81.51
2019-01-31T01:14:25.696Z,81.59
2019-01-31T01:17:10.945Z,81.52
2019-01-31T01:20:08.837Z,81.48
2019-01-31T01:23:22.448Z,81.50
2019-01-31T01:26:17.818Z,81.43
2019-01-31T01:29:33.067Z,81.59
2019-01-31T01:32:40.434Z,81.71
2019-01-31T01:35:56.015Z,81.76
2019-01-31T01:39:19.261Z,81.65
2019-01-31T01:42:24.684Z,81.79
2019-01-31T01:45:37.903Z,81.96
2019-01-31T01:48:49.380Z,82.18
2019-01-31T01:52:00.324Z,82.11
2019-01-31T01:55:23.106Z,82.18
2019-01-31T01:58:30.597Z,82.16
2019-01-31T02:01:43.791Z,82.03
2019-01-31T02:04:24.696Z,81.93
2019-01-31T02:07:24.994Z,81.90
2019-01-31T02:10:31.878Z,82.04
2019-01-31T02:13:29.967Z,82.03
2019-01-31T02:16:51.865Z,82.02
2019-01-31T02:19:58.978Z,81.89
2019-01-31T02:23:18.434Z,81.93
2019-01-31T02:26:36.733Z,82.03
2019-01-31T02:29:46.163Z,82.07
2019-01-31T02:33:15.737Z,81.94
2019-01-31T02:36:27.993Z,81.80
2019-01-31T02:39:53.719Z,81.75
2019-01-31T02:42:51.813Z,81.57
2019-01-31T02:46:17.404Z,81.30
2019-01-31T02:49:15.114Z,81.27
2019-01-31T02:52:07.491Z,81.26
2019-01-31T02:54:41.831Z,81.40
2019-01-31T02:58:01.181Z,81.44
2019-01-31T03:01:01.699Z,81.18
2019-01-31T03:04:06.718Z,80.91
2019-01-31T03:07:17.282Z,80.74
2019-01-31T03:10:23.180Z,80.77
2019-01-31T03:13:29.991Z,80.72
2019-01-31T03:16:09.556Z,80.80
2019-01-31T03:19:37.939Z,80.50
2019-01-31T03:22:51.021Z,80.47
2019-01-31T03:25:41.801Z,80.24
2019-01-31T03:29:04.174Z,80.11
2019-01-31T03:32:10.425Z,80.03
2019-01-31T03:34:56.595Z,80.17
2019-01-31T03:38:01.592Z,80.37
2019-01-31T03:40:59.068Z,80.49
2019-01-31T03:43:59.490Z,80.72
2019-01-31T03:47:22.480Z,80.74
2019-01-31T03:50:23.456Z,81.19
2019-01-31T03:53:29.079Z,81.50
2019-01-31T03:56:48.560Z,81.34
2019-01-31T03:59:47.659Z,81.13
2019-01-31T04:02:49.703Z,81.33
2019-01-31T04:06:00.248Z,81.36
2019-01-31T04:08:30.593Z,81.27
2019-01-31T04:11:00.016Z,81.22
2019-01-31T04:13:30.637Z,80.97
2019-01-31T04:16:07.705Z,81.48
2019-01-31T04:18:37.768Z,81.92
2019-01-31T04:21:07.055Z,82.01
2019-01-31T04:23:36.293Z,81.52
2019-01-31T04:26:08.693Z,81.22
2019-01-31T04:28:38.019Z,81.30
2019-01-31T04:31:08.320Z,81.30
2019-01-31T04:33:38.620Z,81.28
2019-01-31T04:36:07.905Z,81.34
2019-01-31T04:38:37.315Z,81.38
2019-01-31T04:41:07.083Z,81.33
2019-01-31T04:43:36.349Z,81.49
2019-01-31T04:46:05.938Z,81.39
2019-01-31T04:48:35.215Z,81.34
2019-01-31T04:51:04.514Z,81.26
2019-01-31T04:53:36.061Z,81.57
2019-01-31T04:56:05.653Z,81.89
2019-01-31T04:58:36.793Z,82.04
2019-01-31T05:01:06.296Z,82.04
2019-01-31T05:03:35.627Z,81.87
2019-01-31T05:06:06.866Z,81.58
2019-01-31T05:08:36.129Z,81.44
2019-01-31T05:11:09.682Z,81.37
2019-01-31T05:13:39.050Z,81.42
2019-01-31T05:16:08.559Z,81.61
2019-01-31T05:18:37.815Z,81.46
2019-01-31T05:21:08.088Z,81.60
2019-01-31T05:23:37.339Z,81.52
2019-01-31T05:26:06.586Z,81.43
2019-01-31T05:28:36.308Z,81.34
2019-01-31T05:31:05.662Z,81.35
2019-01-31T05:33:34.924Z,81.57
2019-01-31T05:36:04.227Z,81.60
2019-01-31T05:38:33.835Z,81.68
2019-01-31T05:41:03.336Z,81.85
2019-01-31T05:43:33.986Z,81.81
2019-01-31T05:46:03.216Z,81.72
2019-01-31T05:48:32.483Z,81.64
2019-01-31T05:51:03.922Z,81.77
2019-01-31T05:53:33.504Z,81.67
2019-01-31T05:56:02.743Z,81.66
2019-01-31T05:58:31.985Z,81.51
2019-01-31T06:01:01.300Z,81.44
2019-01-31T06:03:31.858Z,81.27
2019-01-31T06:06:03.432Z,81.04
2019-01-31T06:08:32.679Z,80.90
2019-01-31T06:11:07.495Z,80.89
2019-01-31T06:13:33.827Z,81.09
2019-01-31T06:16:03.063Z,80.95
2019-01-31T06:18:32.348Z,81.12
2019-01-31T06:21:02.893Z,81.18
2019-01-31T06:23:32.478Z,81.06
2019-01-31T06:26:03.079Z,81.07
2019-01-31T06:28:32.635Z,81.09
2019-01-31T06:31:01.869Z,80.81
2019-01-31T06:33:33.967Z,80.60
2019-01-31T06:36:03.195Z,80.42
2019-01-31T06:38:32.518Z,80.40
2019-01-31T06:41:03.434Z,80.40
2019-01-31T06:43:32.703Z,80.10
2019-01-31T06:46:02.233Z,79.85
2019-01-31T06:48:34.073Z,79.77
2019-01-31T06:51:03.541Z,79.55
2019-01-31T06:53:33.106Z,79.44
2019-01-31T06:56:02.357Z,79.45
2019-01-31T06:58:31.621Z,79.36
2019-01-31T07:01:00.855Z,79.44
2019-01-31T07:03:30.125Z,79.39
2019-01-31T07:05:59.370Z,79.50
2019-01-31T07:08:29.695Z,79.51
2019-01-31T07:10:58.946Z,79.56
2019-01-31T07:13:30.470Z,79.21
2019-01-31T07:16:00.064Z,79.00
2019-01-31T07:18:29.327Z,78.34
2019-01-31T07:20:58.587Z,77.22
2019-01-31T07:23:27.808Z,76.61
2019-01-31T07:25:57.049Z,75.99
2019-01-31T07:28:26.264Z,75.63
2019-01-31T07:30:55.517Z,75.08
2019-01-31T07:33:25.281Z,74.45
2019-01-31T07:35:54.806Z,73.80
2019-01-31T07:38:27.375Z,73.09
2019-01-31T07:40:57.327Z,72.78
2019-01-31T07:43:26.882Z,72.12
2019-01-31T07:45:56.142Z,71.59
2019-01-31T07:48:25.363Z,70.72
2019-01-31T07:50:54.622Z,70.19
2019-01-31T07:53:24.234Z,69.91
2019-01-31T07:55:53.545Z,69.25
2019-01-31T07:58:22.774Z,68.59
2019-01-31T08:00:52.030Z,68.20
2019-01-31T08:03:21.254Z,68.00
2019-01-31T08:05:50.501Z,68.22
2019-01-31T08:08:19.762Z,68.50
2019-01-31T08:10:50.235Z,68.54
2019-01-31T08:13:19.951Z,68.32
2019-01-31T08:15:49.202Z,67.78
2019-01-31T08:18:18.470Z,66.40
2019-01-31T08:20:48.026Z,64.95
2019-01-31T08:23:17.353Z,63.42
2019-01-31T08:25:46.807Z,62.67
2019-01-31T08:28:17.278Z,61.93
2019-01-31T08:30:46.527Z,61.78
2019-01-31T08:33:15.739Z,60.67
2019-01-31T08:35:44.982Z,60.19
2019-01-31T08:38:14.223Z,59.89
2019-01-31T08:40:43.499Z,59.58
2019-01-31T08:43:12.875Z,59.38
2019-01-31T08:45:42.239Z,58.50
2019-01-31T08:48:11.812Z,56.06
2019-01-31T08:50:41.510Z,54.77
2019-01-31T08:53:10.743Z,53.99
2019-01-31T08:55:40.792Z,53.25
2019-01-31T08:58:10.089Z,52.62
2019-01-31T09:00:39.308Z,53.47
2019-01-31T09:03:08.575Z,55.12
2019-01-31T09:05:37.798Z,56.00
2019-01-31T09:08:07.058Z,54.85
2019-01-31T09:10:38.564Z,54.88
2019-01-31T09:13:10.052Z,54.71
2019-01-31T09:15:39.312Z,54.72
2019-01-31T09:18:08.889Z,54.39
2019-01-31T09:21:05.398Z,55.52
2019-01-31T09:24:16.380Z,56.37
2019-01-31T09:27:39.024Z,57.14
2019-01-31T09:30:51.235Z,56.41
2019-01-31T09:34:07.558Z,54.39
2019-01-31T09:37:14.168Z,53.30
2019-01-31T09:40:23.147Z,52.08
2019-01-31T09:43:09.002Z,50.96
2019-01-31T09:46:22.708Z,50.70
2019-01-31T09:49:00.934Z,50.26
2019-01-31T09:52:30.214Z,51.88
2019-01-31T09:55:24.837Z,50.97
2019-01-31T09:58:20.773Z,51.36
2019-01-31T10:01:36.935Z,50.42
2019-01-31T10:04:27.183Z,49.96
2019-01-31T10:07:29.461Z,49.83
2019-01-31T10:10:41.549Z,50.86
2019-01-31T10:13:58.557Z,50.68
2019-01-31T10:17:10.659Z,49.96
2019-01-31T10:20:24.960Z,48.82
2019-01-31T10:23:25.037Z,47.81
2019-01-31T10:26:31.465Z,48.44
2019-01-31T10:29:25.906Z,49.98
2019-01-31T10:32:24.857Z,49.25
2019-01-31T10:35:18.480Z,51.16
2019-01-31T10:38:17.067Z,51.89
2019-01-31T10:41:21.605Z,51.23
2019-01-31T10:44:35.466Z,50.48
2019-01-31T10:47:26.814Z,51.62
2019-01-31T10:50:42.029Z,51.66
2019-01-31T10:53:54.744Z,53.22
2019-01-31T10:57:16.225Z,52.25
2019-01-31T11:00:40.466Z,49.76
2019-01-31T11:03:46.657Z,46.92
2019-01-31T11:07:08.398Z,47.20
2019-01-31T11:09:55.881Z,47.04
2019-01-31T11:13:00.315Z,49.09
2019-01-31T11:16:07.056Z,50.10
2019-01-31T11:19:12.387Z,53.18
2019-01-31T11:22:21.169Z,55.54
2019-01-31T11:25:18.165Z,57.47
2019-01-31T11:28:37.407Z,57.99
2019-01-31T11:31:44.804Z,56.73
2019-01-31T11:34:40.421Z,57.55
2019-01-31T11:37:51.942Z,57.14
2019-01-31T11:41:07.547Z,57.88
2019-01-31T11:44:11.820Z,57.62
2019-01-31T11:47:10.863Z,55.47
2019-01-31T11:50:18.441Z,54.46
2019-01-31T11:53:35.082Z,54.02
2019-01-31T11:56:41.834Z,52.18
2019-01-31T11:59:12.463Z,51.43
2019-01-31T12:01:42.024Z,50.24
2019-01-31T12:04:29.512Z,49.26
2019-01-31T12:06:58.782Z,49.13
2019-01-31T12:09:28.010Z,47.91
2019-01-31T12:11:57.256Z,48.58
2019-01-31T12:14:27.728Z,48.88
2019-01-31T12:16:57.823Z,49.84
2019-01-31T12:19:27.080Z,49.84
2019-01-31T12:21:56.335Z,49.56
2019-01-31T12:24:25.554Z,48.75
2019-01-31T12:26:54.787Z,47.87
2019-01-31T12:29:24.006Z,49.58
2019-01-31T12:31:54.369Z,48.11
2019-01-31T12:34:23.634Z,48.37
2019-01-31T12:36:52.830Z,48.85
2019-01-31T12:39:22.032Z,50.00
2019-01-31T12:41:51.275Z,50.32
2019-01-31T12:44:20.497Z,49.97
2019-01-31T12:46:49.732Z,49.61
2019-01-31T12:49:18.973Z,49.37
2019-01-31T12:51:48.214Z,49.76
2019-01-31T12:54:18.391Z,49.33
2019-01-31T12:56:47.619Z,49.45
2019-01-31T12:59:16.911Z,50.47
2019-01-31T13:01:46.149Z,50.50
2019-01-31T13:04:15.393Z,51.40
2019-01-31T13:06:44.709Z,50.64
2019-01-31T13:09:14.149Z,49.97
2019-01-31T13:11:43.513Z,48.89
2019-01-31T13:14:12.749Z,50.08
2019-01-31T13:16:41.997Z,50.76
2019-01-31T13:19:11.739Z,49.83
2019-01-31T13:21:40.948Z,49.74
2019-01-31T13:24:10.174Z,50.64
2019-01-31T13:26:39.393Z,51.15
2019-01-31T13:29:08.700Z,50.15
2019-01-31T13:31:37.938Z,51.52
2019-01-31T13:34:08.360Z,51.79
2019-01-31T13:36:37.585Z,50.66
2019-01-31T13:39:14.222Z,52.52
2019-01-31T13:41:43.462Z,52.17
2019-01-31T13:44:12.904Z,52.22
2019-01-31T13:46:42.213Z,53.37
2019-01-31T13:49:11.474Z,52.14
2019-01-31T13:51:40.954Z,51.50
2019-01-31T13:54:13.320Z,50.70
2019-01-31T13:56:45.752Z,51.13
2019-01-31T13:59:13.504Z,51.15
2019-01-31T14:01:42.709Z,50.85
2019-01-31T14:04:12.293Z,50.34
2019-01-31T14:06:41.511Z,52.24
2019-01-31T14:09:11.301Z,51.66
2019-01-31T14:11:40.535Z,50.98
2019-01-31T14:14:09.839Z,50.71
2019-01-31T14:16:47.240Z,50.05
2019-01-31T14:19:10.053Z,50.58
2019-01-31T14:21:39.478Z,50.65
2019-01-31T14:24:08.707Z,51.08
2019-01-31T14:26:41.310Z,51.54
2019-01-31T14:29:10.553Z,55.79
2019-01-31T14:31:40.143Z,51.26
2019-01-31T14:34:10.025Z,50.87
2019-01-31T14:36:39.272Z,51.23
2019-01-31T14:39:10.150Z,50.32
2019-01-31T14:41:39.450Z,50.01
2019-01-31T14:44:19.895Z,50.77
2019-01-31T14:46:39.641Z,51.27
2019-01-31T14:49:09.159Z,49.96
2019-01-31T14:51:38.425Z,49.83
2019-01-31T14:54:07.684Z,50.18
2019-01-31T14:56:36.932Z,49.72
2019-01-31T14:59:06.509Z,49.97
2019-01-31T15:01:35.748Z,50.83
2019-01-31T15:04:04.990Z,51.01
2019-01-31T15:06:34.223Z,52.67
2019-01-31T15:09:04.427Z,53.62
2019-01-31T15:11:33.679Z,54.33
2019-01-31T15:14:02.912Z,55.24
2019-01-31T15:16:32.920Z,55.70
2019-01-31T15:19:02.147Z,56.81
2019-01-31T15:21:31.407Z,57.81
2019-01-31T15:24:00.624Z,58.85
2019-01-31T15:26:29.870Z,59.84
2019-01-31T15:29:00.681Z,60.58
2019-01-31T15:31:29.940Z,61.10
2019-01-31T15:33:59.161Z,61.26
2019-01-31T15:36:28.398Z,61.23
2019-01-31T15:38:57.630Z,61.08
2019-01-31T15:41:26.864Z,61.53
2019-01-31T15:43:56.117Z,61.50
2019-01-31T15:46:25.337Z,61.36
2019-01-31T15:48:55.318Z,61.97
2019-01-31T15:51:25.012Z,62.80
2019-01-31T15:53:54.561Z,63.40
2019-01-31T15:56:23.793Z,63.84
2019-01-31T15:58:53.028Z,63.86
2019-01-31T16:01:22.249Z,63.42
2019-01-31T16:03:51.502Z,63.41
2019-01-31T16:06:20.829Z,63.44
2019-01-31T16:08:50.081Z,63.59
2019-01-31T16:11:19.659Z,63.48
2019-01-31T16:13:48.964Z,63.65
2019-01-31T16:16:20.160Z,63.57
2019-01-31T16:18:49.701Z,63.65
2019-01-31T16:21:18.935Z,64.48
2019-01-31T16:23:48.504Z,64.43
2019-01-31T16:26:17.827Z,64.69
2019-01-31T16:28:49.362Z,64.75
2019-01-31T16:31:18.882Z,64.90
2019-01-31T16:33:48.114Z,65.23
2019-01-31T16:36:17.767Z,65.34
2019-01-31T16:38:47.314Z,65.59
2019-01-31T16:41:17.354Z,65.75
2019-01-31T16:43:48.175Z,65.86
2019-01-31T16:46:17.426Z,66.11
2019-01-31T16:48:48.123Z,66.64
2019-01-31T16:51:17.385Z,67.24
2019-01-31T16:53:47.311Z,67.33
2019-01-31T16:56:16.569Z,67.61
2019-01-31T16:58:45.809Z,67.94
2019-01-31T17:01:16.037Z,67.94
2019-01-31T17:03:45.472Z,68.01
2019-01-31T17:06:15.572Z,68.16
2019-01-31T17:08:44.805Z,68.32
2019-01-31T17:11:14.034Z,68.54
2019-01-31T17:13:44.355Z,68.44
2019-01-31T17:16:13.608Z,68.58
2019-01-31T17:18:42.881Z,68.95
2019-01-31T17:21:12.147Z,69.05
2019-01-31T17:23:41.377Z,68.92
2019-01-31T17:26:10.623Z,68.82
2019-01-31T17:28:39.862Z,68.67
2019-01-31T17:31:10.370Z,68.81
2019-01-31T17:33:39.588Z,68.92
2019-01-31T17:36:08.836Z,68.97
2019-01-31T17:38:38.059Z,68.96
2019-01-31T17:41:07.315Z,68.83
2019-01-31T17:43:36.627Z,68.82
2019-01-31T17:46:07.460Z,68.87
2019-01-31T17:48:36.703Z,69.02
2019-01-31T17:51:05.931Z,69.29
2019-01-31T17:53:35.322Z,69.50
2019-01-31T17:56:04.921Z,69.48
2019-01-31T17:58:34.379Z,69.73
2019-01-31T18:01:03.792Z,69.89
2019-01-31T18:03:33.036Z,70.26
2019-01-31T18:06:02.294Z,70.58
2019-01-31T18:08:31.536Z,70.96
2019-01-31T18:11:02.304Z,71.19
2019-01-31T18:13:31.795Z,71.44
2019-01-31T18:16:01.044Z,71.70
2019-01-31T18:18:30.318Z,71.95
2019-01-31T18:20:59.875Z,72.28
2019-01-31T18:23:31.877Z,72.58
2019-01-31T18:26:01.117Z,72.77
2019-01-31T18:28:30.368Z,73.17
2019-01-31T18:30:59.607Z,73.40
2019-01-31T18:33:28.982Z,73.35
2019-01-31T18:35:58.309Z,73.76
2019-01-31T18:38:27.569Z,73.70
2019-01-31T18:40:56.776Z,73.87
2019-01-31T18:43:28.836Z,73.99
2019-01-31T18:45:58.081Z,73.96
2019-01-31T18:48:29.773Z,74.15
2019-01-31T18:50:59.569Z,74.02
2019-01-31T18:53:30.147Z,73.91
2019-01-31T18:55:59.369Z,74.09
2019-01-31T18:58:28.636Z,74.08
2019-01-31T19:00:57.863Z,74.15
2019-01-31T19:03:29.151Z,74.15
2019-01-31T19:05:58.382Z,74.17
2019-01-31T19:08:27.628Z,74.01
2019-01-31T19:10:56.865Z,73.68
2019-01-31T19:13:26.270Z,73.48
2019-01-31T19:16:04.657Z,73.66
2019-01-31T19:18:26.594Z,73.65
2019-01-31T19:20:57.022Z,73.67
2019-01-31T19:23:29.333Z,73.75
2019-01-31T19:25:58.583Z,73.88
2019-01-31T19:28:28.135Z,74.13
2019-01-31T19:30:57.353Z,74.49
2019-01-31T19:33:26.656Z,74.21
2019-01-31T19:35:55.845Z,74.13
2019-01-31T19:38:26.294Z,74.32
2019-01-31T19:40:55.514Z,74.45
2019-01-31T19:43:24.769Z,74.48
2019-01-31T19:45:53.991Z,74.76
2019-01-31T19:48:23.160Z,74.72
2019-01-31T19:50:52.385Z,74.80
2019-01-31T19:53:21.658Z,74.89
2019-01-31T19:55:51.195Z,74.96
2019-01-31T19:58:20.434Z,74.95
2019-01-31T20:00:49.693Z,74.79
2019-01-31T20:03:20.142Z,74.87
2019-01-31T20:05:49.638Z,74.95
2019-01-31T20:08:18.919Z,74.97
2019-01-31T20:10:48.142Z,75.09
2019-01-31T20:13:17.203Z,75.14
2019-01-31T20:15:46.447Z,75.01
2019-01-31T20:18:15.844Z,74.92
2019-01-31T20:20:44.893Z,74.75
2019-01-31T20:23:14.123Z,74.44
2019-01-31T20:25:43.638Z,73.96
2019-01-31T20:28:12.876Z,73.76
2019-01-31T20:30:42.117Z,73.77
2019-01-31T20:33:11.357Z,73.90
2019-01-31T20:35:41.455Z,73.71
2019-01-31T20:38:10.679Z,73.50
2019-01-31T20:40:42.094Z,73.53
2019-01-31T20:43:11.316Z,73.52
2019-01-31T20:45:40.393Z,73.36
2019-01-31T20:48:11.185Z,73.38
2019-01-31T20:50:42.199Z,73.31
2019-01-31T20:53:12.789Z,73.20
2019-01-31T20:55:42.298Z,73.26
2019-01-31T20:58:11.531Z,73.39
2019-01-31T21:00:43.141Z,73.66
2019-01-31T21:03:13.612Z,73.80
2019-01-31T21:05:43.248Z,73.64
2019-01-31T21:08:13.927Z,73.69
2019-01-31T21:10:44.600Z,73.59
2019-01-31T21:13:13.847Z,73.71
2019-01-31T21:15:44.417Z,73.87
2019-01-31T21:18:13.738Z,74.18
2019-01-31T21:20:47.153Z,74.49
2019-01-31T21:23:16.360Z,74.48
2019-01-31T21:25:45.731Z,74.49
2019-01-31T21:28:23.947Z,74.69
2019-01-31T21:30:55.230Z,74.63
2019-01-31T21:33:26.246Z,74.70
2019-01-31T21:35:59.513Z,74.72
2019-01-31T21:38:39.138Z,74.80
2019-01-31T21:41:14.239Z,74.62
2019-01-31T21:43:43.403Z,74.77
2019-01-31T21:46:12.716Z,74.65
2019-01-31T21:48:42.849Z,74.77
2019-01-31T21:51:12.150Z,74.47
2019-01-31T21:53:41.369Z,74.16
2019-01-31T21:56:10.648Z,74.04
2019-01-31T21:58:39.890Z,74.12
2019-01-31T22:01:12.584Z,74.10
2019-01-31T22:03:42.972Z,73.95
2019-01-31T22:06:22.252Z,73.67
2019-01-31T22:08:45.505Z,73.34
2019-01-31T22:11:14.858Z,73.24
2019-01-31T22:13:44.416Z,72.97
2019-01-31T22:16:13.685Z,72.79
2019-01-31T22:18:43.831Z,72.53
2019-01-31T22:21:13.121Z,72.43
2019-01-31T22:23:42.365Z,72.46
2019-01-31T22:26:12.305Z,72.41
2019-01-31T22:28:42.955Z,72.35
2019-01-31T22:31:12.218Z,72.69
2019-01-31T22:33:44.129Z,72.66
2019-01-31T22:36:13.653Z,72.76
2019-01-31T22:38:45.567Z,73.09
2019-01-31T22:41:13.958Z,73.28
2019-01-31T22:43:43.188Z,73.17
2019-01-31T22:46:12.478Z,73.20
2019-01-31T22:48:43.999Z,73.09
2019-01-31T22:51:13.572Z,73.41
2019-01-31T22:53:42.885Z,73.34
2019-01-31T22:56:12.206Z,73.27
2019-01-31T22:58:41.471Z,73.26
2019-01-31T23:01:43.809Z,72.89
2019-01-31T23:04:13.082Z,72.56
2019-01-31T23:06:42.562Z,72.57
2019-01-31T23:09:13.238Z,72.84
2019-01-31T23:11:42.511Z,72.76
2019-01-31T23:14:12.908Z,72.65
2019-01-31T23:16:42.253Z,72.59
2019-01-31T23:19:11.615Z,72.49
2019-01-31T23:21:40.862Z,72.43
2019-01-31T23:24:10.136Z,72.62
2019-01-31T23:26:39.448Z,72.64
2019-01-31T23:29:08.801Z,72.37
2019-01-31T23:31:38.099Z,72.37
2019-01-31T23:34:08.511Z,72.27
2019-01-31T23:36:38.060Z,71.98
2019-01-31T23:39:10.674Z,72.21
2019-01-31T23:41:41.897Z,72.49
2019-01-31T23:44:11.486Z,72.25
2019-01-31T23:46:40.591Z,71.58
2019-01-31T23:49:09.876Z,71.46
2019-01-31T23:51:39.091Z,71.90
2019-01-31T23:54:08.405Z,72.62
2019-01-31T23:56:37.606Z,72.75
2019-01-31T23:59:06.878Z,72.65
